createdAt,value
2018-04-06T00:00:16.008Z,3.90
2018-04-06T00:02:43.562Z,4.27
2018-04-06T00:05:11.120Z,4.20
2018-04-06T00:07:38.691Z,3.60
2018-04-06T00:10:06.235Z,3.73
2018-04-06T00:12:33.784Z,3.90
2018-04-06T00:15:01.344Z,4.00
2018-04-06T00:17:28.946Z,3.80
2018-04-06T00:19:56.558Z,3.80
2018-04-06T00:22:24.094Z,3.53
2018-04-06T00:24:52.399Z,4.00
2018-04-06T00:27:19.964Z,3.50
2018-04-06T00:29:47.738Z,3.50
2018-04-06T00:32:15.614Z,3.87
2018-04-06T00:34:43.161Z,3.63
2018-04-06T00:37:10.762Z,3.20
2018-04-06T00:39:38.458Z,3.70
2018-04-06T00:42:06.260Z,3.47
2018-04-06T00:44:33.826Z,3.90
2018-04-06T00:47:01.392Z,3.40
2018-04-06T00:49:30.582Z,3.67
2018-04-06T00:51:58.222Z,3.40
2018-04-06T00:54:25.760Z,3.77
2018-04-06T00:56:53.662Z,3.27
2018-04-06T00:59:21.211Z,3.53
2018-04-06T01:01:48.858Z,3.47
2018-04-06T01:04:16.398Z,3.50
2018-04-06T01:06:43.937Z,3.40
2018-04-06T01:09:12.682Z,3.80
2018-04-06T01:11:40.558Z,3.60
2018-04-06T01:14:08.522Z,3.13
2018-04-06T01:16:36.077Z,3.70
2018-04-06T01:19:03.662Z,3.67
2018-04-06T01:21:32.817Z,3.73
2018-04-06T01:24:00.354Z,2.87
2018-04-06T01:26:27.990Z,3.30
2018-04-06T01:28:56.310Z,3.50
2018-04-06T01:31:24.106Z,3.30
2018-04-06T01:33:51.663Z,3.30
2018-04-06T01:36:19.201Z,3.63
2018-04-06T01:38:46.758Z,3.20
2018-04-06T01:41:14.304Z,3.27
2018-04-06T01:43:42.217Z,3.20
2018-04-06T01:46:09.783Z,3.40
2018-04-06T01:48:38.350Z,3.20
2018-04-06T01:51:06.217Z,3.10
2018-04-06T01:53:33.763Z,3.33
2018-04-06T01:56:01.750Z,3.10
2018-04-06T01:58:29.320Z,2.90
2018-04-06T02:00:56.870Z,3.30
2018-04-06T02:03:24.433Z,3.20
2018-04-06T02:05:51.990Z,3.50
2018-04-06T02:08:19.544Z,2.87
2018-04-06T02:10:47.178Z,3.20
2018-04-06T02:13:16.289Z,3.10
2018-04-06T02:15:43.987Z,3.00
2018-04-06T02:18:12.650Z,3.20
2018-04-06T02:20:40.191Z,3.20
2018-04-06T02:23:07.752Z,3.40
2018-04-06T02:25:35.299Z,3.30
2018-04-06T02:28:02.898Z,3.20
2018-04-06T02:30:30.461Z,3.30
2018-04-06T02:32:58.318Z,3.07
2018-04-06T02:35:25.882Z,3.10
2018-04-06T02:37:53.423Z,3.03
2018-04-06T02:40:21.019Z,3.27
2018-04-06T02:42:49.345Z,3.33
2018-04-06T02:45:16.919Z,3.00
2018-04-06T02:47:44.474Z,3.17
2018-04-06T02:50:12.106Z,3.03
2018-04-06T02:52:39.687Z,3.30
2018-04-06T02:55:07.330Z,3.03
2018-04-06T02:57:34.874Z,2.80
2018-04-06T03:00:03.208Z,3.00
2018-04-06T03:02:30.754Z,3.20
2018-04-06T03:04:58.317Z,3.20
2018-04-06T03:07:25.976Z,2.90
2018-04-06T03:09:53.527Z,2.90
2018-04-06T03:12:21.234Z,2.87
2018-04-06T03:14:49.178Z,2.93
2018-04-06T03:17:17.046Z,3.00
2018-04-06T03:19:44.595Z,3.10
2018-04-06T03:22:12.139Z,2.83
2018-04-06T03:24:40.034Z,3.10
2018-04-06T03:27:07.578Z,2.93
2018-04-06T03:29:35.137Z,2.97
2018-04-06T03:32:02.804Z,3.20
2018-04-06T03:34:30.351Z,3.10
2018-04-06T03:36:58.054Z,3.20
2018-04-06T03:39:25.902Z,3.47
2018-04-06T03:41:53.423Z,2.93
2018-04-06T03:44:20.943Z,3.10
2018-04-06T03:46:48.583Z,2.90
2018-04-06T03:49:16.108Z,3.20
2018-04-06T03:51:43.619Z,2.90
2018-04-06T03:54:11.123Z,2.97
2018-04-06T03:56:38.650Z,2.87
2018-04-06T03:59:06.471Z,2.80
2018-04-06T04:01:33.991Z,2.80
2018-04-06T04:04:02.254Z,2.87
2018-04-06T04:06:30.619Z,3.00
2018-04-06T04:08:58.111Z,2.80
2018-04-06T04:11:25.601Z,3.10
2018-04-06T04:13:53.138Z,2.87
2018-04-06T04:16:20.747Z,3.00
2018-04-06T04:18:49.033Z,2.77
2018-04-06T04:21:16.545Z,2.80
2018-04-06T04:23:44.040Z,2.90
2018-04-06T04:26:12.436Z,2.90
2018-04-06T04:28:40.719Z,3.00
2018-04-06T04:31:08.982Z,2.80
2018-04-06T04:33:36.510Z,3.00
2018-04-06T04:36:04.019Z,3.17
2018-04-06T04:38:32.295Z,3.17
2018-04-06T04:41:00.823Z,2.67
2018-04-06T04:43:28.325Z,2.87
2018-04-06T04:45:56.819Z,2.60
2018-04-06T04:48:25.173Z,2.40
2018-04-06T04:50:53.538Z,2.50
2018-04-06T04:53:21.066Z,2.50
2018-04-06T04:55:48.563Z,2.67
2018-04-06T04:58:16.110Z,999.90
2018-04-06T05:00:43.620Z,999.90
2018-04-06T05:03:11.150Z,999.90
2018-04-06T05:05:38.689Z,999.90
2018-04-06T05:08:06.210Z,999.90
2018-04-06T05:10:34.074Z,999.90
2018-04-06T05:13:02.737Z,999.90
2018-04-06T05:15:31.898Z,999.90
2018-04-06T05:17:59.759Z,999.90
2018-04-06T05:20:27.315Z,999.90
2018-04-06T05:22:55.871Z,966.87
2018-04-06T05:25:24.005Z,909.03
2018-04-06T05:27:52.872Z,859.17
2018-04-06T05:30:20.750Z,805.00
2018-04-06T05:32:48.758Z,762.63
2018-04-06T05:35:16.770Z,673.30
2018-04-06T05:37:44.275Z,606.50
2018-04-06T05:40:12.682Z,497.87
2018-04-06T05:42:40.216Z,418.67
2018-04-06T05:45:08.550Z,320.60
2018-04-06T05:47:36.102Z,236.40
2018-04-06T05:50:03.622Z,167.90
2018-04-06T05:52:31.144Z,114.20
2018-04-06T05:54:58.686Z,75.47
2018-04-06T05:57:26.187Z,44.17
2018-04-06T05:59:54.596Z,24.03
2018-04-06T06:02:22.123Z,14.17
2018-04-06T06:04:50.391Z,9.43
2018-04-06T06:07:18.647Z,8.87
2018-04-06T06:09:46.493Z,7.33
2018-04-06T06:12:14.491Z,7.37
2018-04-06T06:14:41.996Z,6.83
2018-04-06T06:17:09.519Z,5.90
2018-04-06T06:19:37.026Z,5.80
2018-04-06T06:22:04.603Z,5.50
2018-04-06T06:24:32.120Z,5.07
2018-04-06T06:26:59.638Z,4.50
2018-04-06T06:29:27.279Z,5.00
2018-04-06T06:31:54.913Z,4.90
2018-04-06T06:34:22.791Z,4.97
2018-04-06T06:36:50.282Z,5.10
2018-04-06T06:39:17.836Z,4.80
2018-04-06T06:41:45.576Z,4.97
2018-04-06T06:44:13.903Z,5.07
2018-04-06T06:46:42.182Z,5.07
2018-04-06T06:49:10.448Z,4.83
2018-04-06T06:51:38.851Z,5.30
2018-04-06T06:54:06.643Z,5.73
2018-04-06T06:56:34.131Z,5.20
2018-04-06T06:59:01.724Z,5.30
2018-04-06T07:01:30.101Z,5.83
2018-04-06T07:03:58.359Z,5.40
2018-04-06T07:06:26.643Z,5.40
2018-04-06T07:08:55.391Z,4.87
2018-04-06T07:11:23.046Z,5.30
2018-04-06T07:13:50.552Z,5.77
2018-04-06T07:16:18.888Z,5.50
2018-04-06T07:18:46.379Z,6.00
2018-04-06T07:21:14.090Z,6.43
2018-04-06T07:23:41.631Z,6.20
2018-04-06T07:26:09.152Z,6.10
2018-04-06T07:28:36.652Z,5.83
2018-04-06T07:31:04.163Z,5.90
2018-04-06T07:33:31.656Z,6.57
2018-04-06T07:35:59.942Z,6.17
2018-04-06T07:38:27.450Z,5.77
2018-04-06T07:40:55.718Z,6.47
2018-04-06T07:43:23.259Z,5.40
2018-04-06T07:45:50.757Z,6.40
2018-04-06T07:48:18.301Z,6.10
2018-04-06T07:50:45.961Z,6.33
2018-04-06T07:53:13.420Z,6.03
2018-04-06T07:55:41.981Z,5.93
2018-04-06T07:58:09.480Z,6.07
2018-04-06T08:00:36.985Z,5.90
2018-04-06T08:03:04.668Z,6.50
2018-04-06T08:05:32.172Z,5.73
2018-04-06T08:08:00.915Z,6.20
2018-04-06T08:10:28.437Z,5.83
2018-04-06T08:12:55.935Z,6.67
2018-04-06T08:15:23.452Z,5.57
2018-04-06T08:17:50.960Z,5.57
2018-04-06T08:20:18.465Z,5.43
2018-04-06T08:22:45.987Z,6.43
2018-04-06T08:25:13.487Z,5.93
2018-04-06T08:27:40.982Z,5.90
2018-04-06T08:30:08.507Z,5.57
2018-04-06T08:32:36.081Z,6.07
2018-04-06T08:35:03.574Z,5.70
2018-04-06T08:37:31.095Z,5.83
2018-04-06T08:39:58.597Z,5.90
2018-04-06T08:42:26.382Z,6.27
2018-04-06T08:44:53.859Z,6.17
2018-04-06T08:47:21.351Z,5.77
2018-04-06T08:49:48.855Z,5.90
2018-04-06T08:52:17.385Z,5.77
2018-04-06T08:54:44.914Z,5.70
2018-04-06T08:57:12.428Z,5.97
2018-04-06T08:59:39.954Z,5.73
2018-04-06T09:02:07.475Z,6.10
2018-04-06T09:04:35.738Z,5.77
2018-04-06T09:07:04.041Z,5.40
2018-04-06T09:09:31.551Z,5.70
2018-04-06T09:11:59.082Z,5.50
2018-04-06T09:14:26.615Z,5.93
2018-04-06T09:16:54.122Z,5.73
2018-04-06T09:19:21.756Z,5.57
2018-04-06T09:21:49.248Z,5.63
2018-04-06T09:24:16.756Z,5.47
2018-04-06T09:26:44.272Z,5.73
2018-04-06T09:29:11.768Z,6.23
2018-04-06T09:31:39.287Z,6.00
2018-04-06T09:34:06.788Z,5.60
2018-04-06T09:36:34.291Z,5.57
2018-04-06T09:39:01.807Z,5.57
2018-04-06T09:41:29.389Z,5.83
2018-04-06T09:43:56.888Z,5.90
2018-04-06T09:46:25.923Z,5.97
2018-04-06T09:48:53.497Z,5.80
2018-04-06T09:51:21.023Z,5.83
2018-04-06T09:53:48.563Z,6.07
2018-04-06T09:56:16.059Z,6.60
2018-04-06T09:58:43.560Z,5.90
2018-04-06T10:01:11.071Z,6.00
2018-04-06T10:03:38.570Z,6.07
2018-04-06T10:06:06.062Z,6.03
2018-04-06T10:08:34.339Z,5.80
2018-04-06T10:11:02.636Z,5.60
2018-04-06T10:13:30.143Z,5.30
2018-04-06T10:15:57.991Z,5.63
2018-04-06T10:18:25.498Z,5.40
2018-04-06T10:20:53.764Z,5.73
2018-04-06T10:23:21.292Z,5.40
2018-04-06T10:25:48.782Z,5.93
2018-04-06T10:28:16.288Z,5.33
2018-04-06T10:30:43.817Z,5.47
2018-04-06T10:33:12.106Z,5.33
2018-04-06T10:35:39.652Z,5.37
2018-04-06T10:38:07.934Z,5.60
2018-04-06T10:40:36.410Z,5.07
2018-04-06T10:43:04.680Z,5.50
2018-04-06T10:45:32.343Z,5.57
2018-04-06T10:48:00.610Z,5.60
2018-04-06T10:50:29.151Z,5.47
2018-04-06T10:52:56.685Z,5.30
2018-04-06T10:55:24.181Z,5.10
2018-04-06T10:57:51.832Z,5.10
2018-04-06T11:00:19.472Z,4.93
2018-04-06T11:02:46.963Z,5.10
2018-04-06T11:05:16.041Z,5.40
2018-04-06T11:07:43.674Z,5.37
2018-04-06T11:10:11.190Z,4.87
2018-04-06T11:12:40.258Z,5.23
2018-04-06T11:15:07.890Z,5.30
2018-04-06T11:17:35.392Z,5.33
2018-04-06T11:20:02.914Z,4.90
2018-04-06T11:22:30.411Z,4.97
2018-04-06T11:24:57.920Z,5.33
2018-04-06T11:27:25.716Z,5.10
2018-04-06T11:29:53.358Z,5.57
2018-04-06T11:32:20.869Z,4.97
2018-04-06T11:34:48.391Z,4.93
2018-04-06T11:37:15.887Z,5.10
2018-04-06T11:39:43.626Z,5.30
2018-04-06T11:42:11.175Z,5.20
2018-04-06T11:44:38.727Z,5.20
2018-04-06T11:47:06.367Z,5.60
2018-04-06T11:49:34.163Z,5.37
2018-04-06T11:52:01.797Z,5.57
2018-04-06T11:54:29.487Z,5.20
2018-04-06T11:56:56.988Z,4.80
2018-04-06T11:59:25.270Z,5.67
2018-04-06T12:01:53.567Z,5.17
2018-04-06T12:04:21.087Z,5.17
2018-04-06T12:06:48.752Z,5.67
2018-04-06T12:09:16.287Z,4.87
2018-04-06T12:11:43.819Z,5.27
2018-04-06T12:14:11.382Z,5.50
2018-04-06T12:16:39.027Z,5.17
2018-04-06T12:19:06.516Z,5.57
2018-04-06T12:21:34.039Z,5.90
2018-04-06T12:24:01.540Z,5.03
2018-04-06T12:26:29.111Z,5.33
2018-04-06T12:28:56.624Z,5.83
2018-04-06T12:31:24.123Z,5.53
2018-04-06T12:33:51.617Z,5.70
2018-04-06T12:36:19.142Z,5.07
2018-04-06T12:38:46.884Z,5.63
2018-04-06T12:41:14.380Z,5.63
2018-04-06T12:43:41.905Z,4.93
2018-04-06T12:46:09.403Z,4.87
2018-04-06T12:48:37.943Z,5.47
2018-04-06T12:51:05.464Z,5.00
2018-04-06T12:53:32.959Z,4.97
2018-04-06T12:56:00.723Z,5.20
2018-04-06T12:58:28.488Z,5.53
2018-04-06T13:00:56.084Z,5.53
2018-04-06T13:03:23.580Z,5.50
2018-04-06T13:05:51.080Z,4.90
2018-04-06T13:08:18.930Z,5.13
2018-04-06T13:10:46.440Z,5.27
2018-04-06T13:13:14.887Z,5.20
2018-04-06T13:15:42.403Z,5.60
2018-04-06T13:18:10.191Z,4.97
2018-04-06T13:20:37.956Z,4.73
2018-04-06T13:23:05.494Z,5.13
2018-04-06T13:25:32.996Z,5.00
2018-04-06T13:28:01.247Z,5.03
2018-04-06T13:30:28.793Z,4.90
2018-04-06T13:32:56.293Z,5.40
2018-04-06T13:35:23.792Z,5.20
2018-04-06T13:37:51.690Z,4.80
2018-04-06T13:40:19.180Z,4.93
2018-04-06T13:42:46.803Z,4.80
2018-04-06T13:45:14.539Z,5.27
2018-04-06T13:47:42.047Z,6.57
2018-04-06T13:50:09.547Z,7.50
2018-04-06T13:52:38.076Z,12.53
2018-04-06T13:55:05.583Z,19.97
2018-04-06T13:57:33.844Z,24.27
2018-04-06T14:00:01.470Z,31.10
2018-04-06T14:02:29.049Z,36.07
2018-04-06T14:04:56.632Z,38.23
2018-04-06T14:07:25.275Z,37.30
2018-04-06T14:09:52.864Z,38.33
2018-04-06T14:12:20.400Z,39.23
2018-04-06T14:14:48.065Z,41.43
2018-04-06T14:17:15.622Z,44.47
2018-04-06T14:19:43.483Z,44.23
2018-04-06T14:22:11.014Z,43.33
2018-04-06T14:24:38.530Z,47.03
2018-04-06T14:27:06.149Z,43.50
2018-04-06T14:29:33.706Z,41.07
2018-04-06T14:32:01.487Z,39.80
2018-04-06T14:34:28.996Z,35.77
2018-04-06T14:36:57.354Z,33.77
2018-04-06T14:39:25.191Z,34.80
2018-04-06T14:41:52.687Z,32.23
2018-04-06T14:44:20.276Z,29.50
2018-04-06T14:46:47.785Z,29.50
2018-04-06T14:49:15.303Z,26.57
2018-04-06T14:51:42.840Z,24.97
2018-04-06T14:54:11.168Z,24.00
2018-04-06T14:56:38.674Z,24.63
2018-04-06T14:59:07.377Z,22.37
2018-04-06T15:01:35.685Z,22.37
2018-04-06T15:04:03.328Z,21.13
2018-04-06T15:06:30.860Z,20.40
2018-04-06T15:08:58.719Z,19.60
2018-04-06T15:11:26.982Z,18.57
2018-04-06T15:13:54.824Z,15.97
2018-04-06T15:16:22.336Z,17.47
2018-04-06T15:18:50.030Z,15.20
2018-04-06T15:21:17.560Z,15.10
2018-04-06T15:23:45.079Z,15.33
2018-04-06T15:26:12.572Z,13.90
2018-04-06T15:28:40.368Z,14.30
2018-04-06T15:31:07.879Z,12.47
2018-04-06T15:33:36.262Z,12.03
2018-04-06T15:36:04.787Z,11.80
2018-04-06T15:38:32.291Z,11.03
2018-04-06T15:41:00.555Z,11.40
2018-04-06T15:43:28.070Z,11.30
2018-04-06T15:45:55.583Z,11.07
2018-04-06T15:48:23.845Z,9.77
2018-04-06T15:50:52.144Z,9.47
2018-04-06T15:53:20.406Z,9.23
2018-04-06T15:55:47.917Z,9.00
2018-04-06T15:58:15.695Z,8.90
2018-04-06T16:00:43.252Z,8.53
2018-04-06T16:03:10.794Z,9.77
2018-04-06T16:05:38.315Z,9.20
2018-04-06T16:08:06.630Z,9.20
2018-04-06T16:10:34.147Z,10.57
2018-04-06T16:13:02.445Z,10.93
2018-04-06T16:15:30.455Z,10.17
2018-04-06T16:17:58.029Z,11.63
2018-04-06T16:20:25.557Z,10.10
2018-04-06T16:22:53.073Z,10.73
2018-04-06T16:25:21.387Z,9.13
2018-04-06T16:27:48.911Z,10.80
2018-04-06T16:30:17.183Z,10.73
2018-04-06T16:32:45.715Z,12.03
2018-04-06T16:35:13.280Z,12.70
2018-04-06T16:37:40.860Z,10.70
2018-04-06T16:40:08.712Z,12.00
2018-04-06T16:42:36.235Z,12.43
2018-04-06T16:45:03.847Z,728.75
2018-04-06T16:47:33.709Z,762.50
2018-04-06T16:50:06.260Z,150.87
2018-04-06T16:52:37.416Z,107.07
2018-04-06T16:55:08.391Z,47.23
2018-04-06T16:57:38.019Z,22.33
2018-04-06T17:00:09.121Z,14.80
2018-04-06T17:02:38.055Z,11.33
2018-04-06T17:05:06.148Z,999.90
2018-04-06T17:07:34.016Z,43.80
2018-04-06T17:10:03.010Z,50.77
2018-04-06T17:12:33.044Z,23.57
2018-04-06T17:15:01.980Z,14.70
2018-04-06T17:17:31.098Z,12.57
2018-04-06T17:20:01.172Z,11.20
2018-04-06T17:22:31.686Z,11.00
2018-04-06T17:25:02.049Z,11.80
2018-04-06T17:27:30.003Z,12.23
2018-04-06T17:29:57.507Z,12.53
2018-04-06T17:32:29.335Z,11.70
2018-04-06T17:34:57.195Z,11.03
2018-04-06T17:37:24.789Z,10.97
2018-04-06T17:39:52.496Z,10.83
2018-04-06T17:42:20.003Z,10.90
2018-04-06T17:44:47.538Z,10.13
2018-04-06T17:47:15.189Z,10.63
2018-04-06T17:49:43.551Z,11.20
2018-04-06T17:52:11.088Z,10.50
2018-04-06T17:54:40.032Z,11.17
2018-04-06T17:57:07.563Z,11.83
2018-04-06T17:59:36.165Z,12.43
2018-04-06T18:02:05.631Z,10.27
2018-04-06T18:04:33.914Z,9.40
2018-04-06T18:07:01.440Z,10.30
2018-04-06T18:09:28.972Z,10.10
2018-04-06T18:11:58.630Z,9.67
2018-04-06T18:14:27.457Z,9.60
2018-04-06T18:16:54.999Z,9.97
2018-04-06T18:19:22.625Z,9.13
2018-04-06T18:21:50.128Z,8.37
2018-04-06T18:24:17.664Z,9.67
2018-04-06T18:26:45.296Z,9.63
2018-04-06T18:29:12.837Z,10.07
2018-04-06T18:31:40.422Z,10.47
2018-04-06T18:34:08.248Z,11.23
2018-04-06T18:36:35.855Z,9.70
2018-04-06T18:39:04.159Z,10.97
2018-04-06T18:41:31.689Z,10.97
2018-04-06T18:44:00.173Z,7.70
2018-04-06T18:46:30.033Z,7.60
2018-04-06T18:48:58.936Z,6.70
2018-04-06T18:51:27.179Z,7.77
2018-04-06T18:53:54.816Z,6.47
2018-04-06T18:56:23.086Z,8.03
2018-04-06T18:58:50.615Z,8.80
2018-04-06T19:01:18.146Z,8.83
2018-04-06T19:03:45.674Z,9.47
2018-04-06T19:06:14.038Z,9.93
2018-04-06T19:08:41.865Z,9.47
2018-04-06T19:11:09.403Z,9.67
2018-04-06T19:13:37.025Z,9.27
2018-04-06T19:16:04.558Z,9.13
2018-04-06T19:18:32.131Z,9.60
2018-04-06T19:20:59.756Z,9.40
2018-04-06T19:23:27.259Z,9.63
2018-04-06T19:25:54.771Z,9.37
2018-04-06T19:28:22.296Z,9.10
2018-04-06T19:30:50.624Z,8.87
2018-04-06T19:33:18.315Z,9.13
2018-04-06T19:35:46.035Z,8.73
2018-04-06T19:38:13.579Z,8.47
2018-04-06T19:40:41.364Z,8.33
2018-04-06T19:43:08.938Z,8.23
2018-04-06T19:45:36.697Z,7.57
2018-04-06T19:48:04.302Z,7.90
2018-04-06T19:50:32.649Z,8.10
2018-04-06T19:53:00.207Z,8.07
2018-04-06T19:55:27.852Z,8.17
2018-04-06T19:57:55.405Z,7.80
2018-04-06T20:00:22.904Z,8.60
2018-04-06T20:02:50.405Z,9.00
2018-04-06T20:05:18.924Z,7.80
2018-04-06T20:07:46.459Z,7.27
2018-04-06T20:10:14.001Z,8.40
2018-04-06T20:12:41.517Z,7.63
2018-04-06T20:15:09.072Z,7.97
2018-04-06T20:17:37.374Z,8.27
2018-04-06T20:20:05.739Z,8.83
2018-04-06T20:22:33.297Z,8.70
2018-04-06T20:25:01.621Z,9.90
2018-04-06T20:27:29.171Z,9.43
2018-04-06T20:29:56.852Z,9.47
2018-04-06T20:32:24.429Z,9.50
2018-04-06T20:34:52.395Z,9.27
2018-04-06T20:37:19.970Z,8.43
2018-04-06T20:39:48.320Z,9.13
2018-04-06T20:42:16.048Z,9.20
2018-04-06T20:44:43.575Z,9.07
2018-04-06T20:47:11.155Z,9.43
2018-04-06T20:49:39.745Z,9.07
2018-04-06T20:52:07.271Z,9.70
2018-04-06T20:54:35.337Z,9.20
2018-04-06T20:57:03.635Z,9.10
2018-04-06T20:59:31.379Z,9.43
2018-04-06T21:02:00.485Z,8.90
2018-04-06T21:04:28.102Z,8.53
2018-04-06T21:06:55.699Z,8.87
2018-04-06T21:09:23.234Z,9.00
2018-04-06T21:11:50.996Z,8.63
2018-04-06T21:14:18.541Z,8.47
2018-04-06T21:16:46.159Z,8.27
2018-04-06T21:19:13.800Z,8.50
2018-04-06T21:21:41.339Z,8.30
2018-04-06T21:24:09.047Z,9.30
2018-04-06T21:26:37.408Z,7.97
2018-04-06T21:29:04.948Z,8.80
2018-04-06T21:31:32.495Z,8.13
2018-04-06T21:34:00.522Z,8.17
2018-04-06T21:36:28.820Z,7.27
2018-04-06T21:38:56.337Z,7.70
2018-04-06T21:41:24.172Z,7.33
2018-04-06T21:43:51.839Z,8.00
2018-04-06T21:46:19.347Z,7.47
2018-04-06T21:48:48.060Z,7.57
2018-04-06T21:51:16.344Z,6.90
2018-04-06T21:53:43.846Z,6.83
2018-04-06T21:56:11.407Z,6.70
2018-04-06T21:58:38.963Z,7.23
2018-04-06T22:01:06.587Z,6.77
2018-04-06T22:03:34.104Z,7.30
2018-04-06T22:06:02.492Z,7.13
2018-04-06T22:08:29.984Z,7.10
2018-04-06T22:10:57.499Z,7.00
2018-04-06T22:13:25.803Z,7.70
2018-04-06T22:15:53.295Z,6.80
2018-04-06T22:18:20.791Z,7.40
2018-04-06T22:20:49.076Z,7.40
2018-04-06T22:23:17.963Z,7.10
2018-04-06T22:25:46.225Z,6.90
2018-04-06T22:28:14.564Z,7.23
2018-04-06T22:30:42.108Z,7.00
2018-04-06T22:33:09.681Z,6.53
2018-04-06T22:35:37.203Z,7.07
2018-04-06T22:38:04.705Z,6.70
2018-04-06T22:40:32.203Z,6.83
2018-04-06T22:43:00.483Z,6.43
2018-04-06T22:45:28.752Z,6.60
2018-04-06T22:47:57.019Z,7.27
2018-04-06T22:50:24.535Z,7.07
2018-04-06T22:52:52.032Z,6.47
2018-04-06T22:55:19.524Z,6.57
2018-04-06T22:57:47.112Z,6.07
2018-04-06T23:00:14.980Z,7.00
2018-04-06T23:02:42.494Z,6.90
2018-04-06T23:05:11.033Z,6.00
2018-04-06T23:07:38.527Z,6.13
2018-04-06T23:10:06.815Z,6.10
2018-04-06T23:12:35.072Z,6.17
2018-04-06T23:15:02.572Z,6.57
2018-04-06T23:17:30.099Z,6.50
2018-04-06T23:19:58.429Z,6.87
2018-04-06T23:22:25.943Z,6.40
2018-04-06T23:24:54.332Z,5.73
2018-04-06T23:27:21.830Z,6.60
2018-04-06T23:29:49.347Z,5.90
2018-04-06T23:32:17.142Z,6.40
2018-04-06T23:34:44.635Z,6.27
2018-04-06T23:37:12.150Z,5.97
2018-04-06T23:39:39.649Z,6.30
2018-04-06T23:42:07.279Z,5.83
2018-04-06T23:44:34.908Z,6.47
2018-04-06T23:47:03.167Z,5.93
2018-04-06T23:49:31.569Z,6.43
2018-04-06T23:51:59.132Z,6.07
2018-04-06T23:54:26.642Z,5.80
2018-04-06T23:56:54.160Z,5.80
2018-04-06T23:59:21.733Z,5.90
